Time;durP1;ratioP1;P1;durP2;ratioP2;P2;SDS_P1;SDS_P2;PMS_P1;PMS_P2;Temp;Humidity;BMP_temperature;BMP_pressure;BME280_temperature;BME280_humidity;BME280_pressure;Samples;Min_cycle;Max_cycle;Signal;HPM_P1;HPM_P2
2023/08/02 00:02:12;;;;;;;7.67;2.83;;;;;;;17.42;100.00;100021.00;5288479;28;20123;-76
2023/08/02 00:04:43;;;;;;;5.32;2.38;;;;;;;17.37;100.00;100011.00;5289573;28;20297;-75
2023/08/02 00:07:14;;;;;;;4.97;2.45;;;;;;;17.37;100.00;100012.84;5286251;28;20943;-75
2023/08/02 00:09:46;;;;;;;5.55;2.45;;;;;;;17.29;100.00;100013.00;5266150;28;20111;-76
2023/08/02 00:12:17;;;;;;;6.35;2.72;;;;;;;17.26;100.00;100017.66;5289053;28;20029;-75
2023/08/02 00:14:48;;;;;;;8.38;2.38;;;;;;;17.26;100.00;100015.00;5287518;28;20034;-76
2023/08/02 00:17:19;;;;;;;7.65;2.55;;;;;;;17.21;100.00;100020.09;5285921;28;20077;-75
2023/08/02 00:19:51;;;;;;;5.22;2.33;;;;;;;17.21;100.00;100019.28;5290136;28;20131;-74
2023/08/02 00:22:22;;;;;;;7.78;2.60;;;;;;;17.22;100.00;100027.00;5286975;28;20021;-76
2023/08/02 00:24:53;;;;;;;6.45;2.50;;;;;;;17.15;100.00;100020.84;5284632;28;20024;-76
2023/08/02 00:27:24;;;;;;;6.20;2.63;;;;;;;17.16;100.00;100019.84;5289089;28;20028;-74
2023/08/02 00:29:56;;;;;;;4.80;2.10;;;;;;;17.19;100.00;100018.63;5284202;28;20364;-74
2023/08/02 00:32:27;;;;;;;7.72;3.10;;;;;;;17.15;100.00;100018.19;5290100;28;20469;-73
2023/08/02 00:34:58;;;;;;;4.85;2.90;;;;;;;17.15;100.00;100028.78;5290088;28;20089;-77
2023/08/02 00:37:29;;;;;;;6.43;2.92;;;;;;;17.16;100.00;100022.50;5273360;28;20028;-74
2023/08/02 00:40:01;;;;;;;5.35;2.30;;;;;;;17.15;100.00;100001.50;5287948;28;20025;-76
2023/08/02 00:42:32;;;;;;;7.47;3.00;;;;;;;17.20;100.00;100005.22;5265866;28;20092;-75
2023/08/02 00:45:04;;;;;;;8.18;2.53;;;;;;;17.17;100.00;99995.00;5283550;28;20138;-74
2023/08/02 00:47:35;;;;;;;5.22;2.30;;;;;;;17.18;100.00;99991.34;5285698;28;20029;-76
2023/08/02 00:50:07;;;;;;;4.65;2.10;;;;;;;17.18;100.00;99980.75;5290806;28;20032;-76
2023/08/02 00:52:39;;;;;;;6.78;2.70;;;;;;;17.18;100.00;99978.13;5289548;28;20024;-76
2023/08/02 00:55:10;;;;;;;6.25;2.28;;;;;;;17.23;100.00;99973.03;5289819;28;20032;-74
2023/08/02 00:57:41;;;;;;;6.93;2.72;;;;;;;17.28;100.00;99964.53;5286086;28;20245;-76
2023/08/02 01:00:13;;;;;;;10.23;2.72;;;;;;;17.21;100.00;99964.50;5291644;28;20038;-74
2023/08/02 01:02:44;;;;;;;7.30;2.75;;;;;;;17.29;100.00;99975.94;5286799;28;20369;-75
2023/08/02 01:05:18;;;;;;;6.57;2.47;;;;;;;17.30;100.00;99972.28;5285141;28;20024;-76
2023/08/02 01:07:58;;;;;;;5.70;2.67;;;;;;;17.42;100.00;99968.06;5285260;28;20396;-76
2023/08/02 01:10:34;;;;;;;6.40;2.25;;;;;;;17.35;100.00;99972.50;5285007;28;20027;-76
2023/08/02 01:13:07;;;;;;;4.22;2.17;;;;;;;17.31;100.00;99961.47;5263736;28;20028;-74
2023/08/02 01:15:38;;;;;;;5.65;2.53;;;;;;;17.37;100.00;99973.13;5283263;28;20496;-76
2023/08/02 01:18:10;;;;;;;7.75;2.55;;;;;;;17.40;100.00;99978.03;5269229;28;20033;-73
2023/08/02 01:20:41;;;;;;;5.15;2.38;;;;;;;17.39;100.00;99968.47;5284197;28;20032;-76
2023/08/02 01:23:12;;;;;;;7.68;2.72;;;;;;;17.45;100.00;99962.38;5285575;28;20234;-74
2023/08/02 01:25:45;;;;;;;5.22;2.85;;;;;;;17.40;100.00;99960.31;5281285;28;20391;-74
2023/08/02 01:28:21;;;;;;;7.03;2.47;;;;;;;17.44;100.00;99948.31;5277092;28;20028;-75
2023/08/02 01:30:53;;;;;;;5.78;2.85;;;;;;;17.39;100.00;99952.59;5279059;28;20028;-77
2023/08/02 01:33:27;;;;;;;4.47;2.50;;;;;;;17.43;100.00;99946.69;5281052;28;20028;-76
2023/08/02 01:35:58;;;;;;;4.80;2.20;;;;;;;17.42;100.00;99946.88;5279832;28;20032;-76
2023/08/02 01:38:30;;;;;;;4.82;2.40;;;;;;;17.51;100.00;99956.31;5285761;28;20055;-75
2023/08/02 01:41:01;;;;;;;7.80;2.90;;;;;;;17.46;100.00;99935.72;5283169;28;20381;-75
2023/08/02 01:43:33;;;;;;;6.20;2.67;;;;;;;17.54;100.00;99940.03;5271558;28;20031;-73
2023/08/02 01:46:04;;;;;;;6.18;2.65;;;;;;;17.50;100.00;99936.13;5279803;28;20020;-75
2023/08/02 01:48:35;;;;;;;6.43;2.70;;;;;;;17.55;100.00;99928.41;5277675;28;20032;-74
2023/08/02 01:51:07;;;;;;;7.90;2.63;;;;;;;17.59;100.00;99934.94;5280336;28;20038;-76
2023/08/02 01:53:38;;;;;;;9.00;3.55;;;;;;;17.55;100.00;99925.75;5261351;28;20086;-75
2023/08/02 01:56:09;;;;;;;6.97;3.25;;;;;;;17.55;100.00;99915.16;5282196;28;20059;-75
2023/08/02 01:58:40;;;;;;;7.47;2.97;;;;;;;17.57;100.00;99915.78;5278722;28;20167;-76
2023/08/02 02:01:12;;;;;;;9.40;3.10;;;;;;;17.60;100.00;99910.09;5281520;28;20063;-74
2023/08/02 02:03:43;;;;;;;7.00;2.35;;;;;;;17.63;100.00;99900.94;5281361;28;20031;-75
2023/08/02 02:06:14;;;;;;;7.40;2.58;;;;;;;17.58;100.00;99898.88;5289147;28;20051;-76
2023/08/02 02:08:45;;;;;;;5.45;2.67;;;;;;;17.56;100.00;99897.44;5280481;28;20028;-76
2023/08/02 02:11:17;;;;;;;7.68;2.78;;;;;;;17.59;100.00;99874.03;5283003;28;20043;-73
2023/08/02 02:13:48;;;;;;;6.93;2.90;;;;;;;17.55;100.00;99886.03;5284142;28;20020;-75
2023/08/02 02:16:19;;;;;;;7.20;2.63;;;;;;;17.60;100.00;99880.13;5284532;28;20032;-74
2023/08/02 02:18:50;;;;;;;6.95;2.17;;;;;;;17.56;100.00;99870.97;5284065;28;20068;-75
2023/08/02 02:21:22;;;;;;;5.30;2.60;;;;;;;17.53;100.00;99850.97;5283437;28;20347;-73
2023/08/02 02:23:53;;;;;;;6.05;2.70;;;;;;;17.50;100.00;99851.38;5285303;28;20055;-76
2023/08/02 02:26:25;;;;;;;7.32;2.70;;;;;;;17.49;100.00;99829.38;5281471;28;20098;-75
2023/08/02 02:28:56;;;;;;;7.10;2.85;;;;;;;17.57;100.00;99833.66;5284062;28;20086;-73
2023/08/02 02:31:28;;;;;;;5.68;2.70;;;;;;;17.59;100.00;99815.75;5285528;28;20016;-76
2023/08/02 02:33:59;;;;;;;4.80;2.47;;;;;;;17.58;100.00;99815.94;5285967;28;20548;-74
2023/08/02 02:36:30;;;;;;;8.80;2.90;;;;;;;17.56;100.00;99825.94;5283201;28;20028;-74
2023/08/02 02:39:01;;;;;;;5.85;2.65;;;;;;;17.54;100.00;99822.66;5280441;28;20071;-73
2023/08/02 02:41:33;;;;;;;5.70;2.22;;;;;;;17.55;100.00;99813.72;5287074;28;20024;-74
2023/08/02 02:44:04;;;;;;;4.55;2.83;;;;;;;17.56;100.00;99818.81;5285287;28;20028;-74
2023/08/02 02:46:35;;;;;;;6.93;2.95;;;;;;;17.54;100.00;99798.81;5284284;28;20040;-74
2023/08/02 02:49:06;;;;;;;6.20;2.50;;;;;;;17.57;100.00;99809.03;5286237;28;20055;-75
2023/08/02 02:51:38;;;;;;;4.15;2.15;;;;;;;17.60;100.00;99809.44;5280773;28;20035;-74
2023/08/02 02:54:09;;;;;;;5.07;2.60;;;;;;;17.65;100.00;99825.56;5284847;28;20084;-76
2023/08/02 02:56:40;;;;;;;7.72;3.05;;;;;;;17.68;100.00;99829.63;5281800;28;20055;-74
2023/08/02 02:59:11;;;;;;;5.47;2.80;;;;;;;17.66;100.00;99805.19;5287525;28;20044;-74
2023/08/02 03:01:43;;;;;;;6.22;2.55;;;;;;;17.64;100.00;99793.97;5279873;28;20098;-75
2023/08/02 03:04:14;;;;;;;5.68;2.67;;;;;;;17.72;100.00;99807.00;5285784;28;20028;-76
2023/08/02 03:06:45;;;;;;;7.60;2.63;;;;;;;17.73;100.00;99787.47;5282977;28;20489;-76
2023/08/02 03:09:17;;;;;;;5.38;2.67;;;;;;;17.64;100.00;99764.81;5281209;28;20583;-73
2023/08/02 03:11:48;;;;;;;5.15;2.22;;;;;;;17.74;100.00;99759.94;5279862;28;20020;-74
2023/08/02 03:14:19;;;;;;;6.07;2.60;;;;;;;17.74;100.00;99744.06;5286796;28;20086;-73
2023/08/02 03:16:50;;;;;;;5.35;2.50;;;;;;;17.66;100.00;99741.63;5290019;28;20476;-74
2023/08/02 03:19:22;;;;;;;5.28;2.10;;;;;;;17.74;100.00;99742.22;5280062;28;20027;-77
2023/08/02 03:21:53;;;;;;;7.10;2.90;;;;;;;17.72;100.00;99733.66;5278804;28;20021;-73
2023/08/02 03:24:24;;;;;;;6.50;2.80;;;;;;;17.67;100.00;99722.03;5281817;28;20105;-76
2023/08/02 03:26:55;;;;;;;6.45;2.53;;;;;;;17.73;100.00;99714.09;5288446;28;20035;-73
2023/08/02 03:29:27;;;;;;;5.35;2.60;;;;;;;17.72;100.00;99712.44;5272484;28;20035;-74
2023/08/02 03:31:58;;;;;;;5.07;2.47;;;;;;;17.73;100.00;99715.94;5283221;28;20085;-75
2023/08/02 03:34:29;;;;;;;6.43;2.55;;;;;;;17.72;100.00;99719.59;5282309;28;20253;-74
2023/08/02 03:37:01;;;;;;;5.53;2.78;;;;;;;17.74;100.00;99720.22;5284816;28;20142;-77
2023/08/02 03:39:32;;;;;;;6.00;2.47;;;;;;;17.71;100.00;99716.13;5279334;28;20036;-73
2023/08/02 03:42:03;;;;;;;4.72;2.90;;;;;;;17.71;100.00;99705.53;5285551;28;20032;-74
2023/08/02 03:44:34;;;;;;;4.40;2.83;;;;;;;17.71;100.00;99705.53;5281174;28;20033;-74
2023/08/02 03:47:06;;;;;;;5.38;2.83;;;;;;;17.71;100.00;99694.94;5283774;28;20030;-73
2023/08/02 03:49:39;;;;;;;8.60;3.00;;;;;;;17.73;100.00;99692.09;5289643;28;20381;-76
2023/08/02 03:52:10;;;;;;;5.03;2.40;;;;;;;17.69;100.00;99674.97;5285066;28;20028;-74
2023/08/02 03:54:41;;;;;;;6.60;2.90;;;;;;;17.73;100.00;99673.56;5280516;28;20040;-74
2023/08/02 03:57:12;;;;;;;9.70;2.90;;;;;;;17.73;100.00;99674.38;5281169;28;20044;-74
2023/08/02 03:59:44;;;;;;;7.00;3.03;;;;;;;17.74;100.00;99661.94;5284359;28;20493;-74
2023/08/02 04:02:15;;;;;;;6.60;2.80;;;;;;;17.73;100.00;99653.19;5281416;28;20040;-73
2023/08/02 04:04:46;;;;;;;5.68;3.00;;;;;;;17.73;100.00;99641.78;5289273;28;20066;-74
2023/08/02 04:07:17;;;;;;;5.90;3.00;;;;;;;17.68;100.00;99623.81;5256338;28;20036;-74
2023/08/02 04:09:49;;;;;;;6.68;2.75;;;;;;;17.77;100.00;99635.06;5283363;28;20032;-74
2023/08/02 04:12:20;;;;;;;7.38;3.40;;;;;;;17.77;100.00;99627.13;5283285;28;20027;-74
2023/08/02 04:14:51;;;;;;;4.88;2.65;;;;;;;17.77;100.00;99621.81;5284547;28;20091;-74
2023/08/02 04:17:25;;;;;;;7.15;3.08;;;;;;;17.74;100.00;99614.25;5282489;28;20443;-77
2023/08/02 04:19:58;;;;;;;5.45;2.92;;;;;;;17.77;100.00;99611.22;5283269;28;20032;-74
2023/08/02 04:22:31;;;;;;;8.15;3.00;;;;;;;17.71;100.00;99607.53;5284356;28;20036;-76
2023/08/02 04:25:03;;;;;;;7.88;3.40;;;;;;;17.73;100.00;99602.03;5281702;28;20063;-74
2023/08/02 04:27:34;;;;;;;6.18;3.30;;;;;;;17.75;100.00;99594.72;5281127;28;20084;-75
2023/08/02 04:30:06;;;;;;;6.68;2.85;;;;;;;17.73;100.00;99576.34;5284975;28;20386;-74
2023/08/02 04:32:38;;;;;;;5.50;3.17;;;;;;;17.66;100.00;99554.38;5281691;28;20028;-76
2023/08/02 04:35:09;;;;;;;4.88;3.22;;;;;;;17.73;100.00;99570.25;5282785;28;20503;-74
2023/08/02 04:37:40;;;;;;;4.70;3.35;;;;;;;17.77;100.00;99568.00;5279375;28;20024;-73
2023/08/02 04:40:11;;;;;;;4.13;3.20;;;;;;;17.73;100.00;99560.47;5280858;28;20460;-73
2023/08/02 04:42:43;;;;;;;7.88;3.65;;;;;;;17.78;100.00;99545.81;5282201;28;20103;-74
2023/08/02 04:45:14;;;;;;;5.57;2.88;;;;;;;17.75;100.00;99537.25;5283354;28;20017;-74
2023/08/02 04:47:45;;;;;;;8.63;3.25;;;;;;;17.81;100.00;99527.66;5286284;28;20110;-75
2023/08/02 04:50:17;;;;;;;7.07;2.97;;;;;;;17.75;100.00;99500.16;5272049;28;20016;-77
2023/08/02 04:52:48;;;;;;;7.47;3.33;;;;;;;17.85;100.00;99525.41;5285804;28;20028;-73
2023/08/02 04:55:19;;;;;;;6.65;3.30;;;;;;;17.77;100.00;99499.13;5286231;28;20028;-74
2023/08/02 04:57:50;;;;;;;5.88;3.00;;;;;;;17.81;100.00;99503.00;5284143;28;20040;-75
2023/08/02 05:00:22;;;;;;;5.43;3.28;;;;;;;17.82;100.00;99504.63;5281888;28;20031;-75
2023/08/02 05:02:53;;;;;;;6.88;3.55;;;;;;;17.82;100.00;99497.50;5285662;28;20048;-73
2023/08/02 05:05:24;;;;;;;7.45;3.17;;;;;;;17.84;100.00;99503.41;5287852;28;20020;-74
2023/08/02 05:07:55;;;;;;;5.20;3.20;;;;;;;17.84;100.00;99494.63;5287330;28;20028;-73
2023/08/02 05:10:27;;;;;;;5.30;3.30;;;;;;;17.78;100.00;99491.00;5289213;28;20381;-73
2023/08/02 05:12:58;;;;;;;4.72;2.90;;;;;;;17.81;100.00;99489.75;5290182;28;20060;-74
2023/08/02 05:15:35;;;;;;;4.95;3.00;;;;;;;17.94;100.00;99497.63;5284832;28;20032;-76
2023/08/02 05:18:06;;;;;;;10.80;3.90;;;;;;;17.78;100.00;99490.19;5281915;28;20040;-74
2023/08/02 05:20:37;;;;;;;8.38;3.90;;;;;;;17.79;100.00;99467.94;5287437;28;20387;-76
2023/08/02 05:23:08;;;;;;;5.35;3.25;;;;;;;17.75;100.00;99454.31;5283436;28;20542;-74
2023/08/02 05:25:40;;;;;;;6.93;3.75;;;;;;;17.77;100.00;99465.53;5283017;28;20567;-73
2023/08/02 05:28:12;;;;;;;4.82;3.22;;;;;;;17.71;100.00;99459.19;5292094;28;20068;-73
2023/08/02 05:30:43;;;;;;;6.07;3.20;;;;;;;17.66;100.00;99447.59;5252835;28;20115;-74
2023/08/02 05:33:14;;;;;;;5.13;3.40;;;;;;;17.66;100.00;99437.81;5285794;28;20024;-73
2023/08/02 05:35:45;;;;;;;5.72;3.30;;;;;;;17.62;100.00;99422.56;5286567;28;20085;-74
2023/08/02 05:38:17;;;;;;;6.30;3.63;;;;;;;17.58;100.00;99408.94;5288641;28;20034;-74
2023/08/02 05:40:48;;;;;;;6.68;3.80;;;;;;;17.66;100.00;99421.94;5284328;28;20104;-73
2023/08/02 05:43:20;;;;;;;5.65;3.38;;;;;;;17.65;100.00;99409.72;5286701;28;20031;-77
2023/08/02 05:45:52;;;;;;;6.85;3.33;;;;;;;17.63;100.00;99405.66;5282847;28;20025;-73
2023/08/02 05:48:24;;;;;;;7.57;3.83;;;;;;;17.62;100.00;99399.53;5285868;28;20584;-74
2023/08/02 05:50:55;;;;;;;4.85;3.25;;;;;;;17.59;100.00;99386.72;5289758;28;20122;-74
2023/08/02 05:53:26;;;;;;;5.75;4.03;;;;;;;17.61;100.00;99391.78;5286567;28;20025;-75
2023/08/02 05:55:58;;;;;;;4.88;3.35;;;;;;;17.67;100.00;99385.66;5281921;28;20032;-73
2023/08/02 05:58:29;;;;;;;4.78;3.13;;;;;;;17.71;100.00;99373.63;5283885;28;20097;-73
2023/08/02 06:01:00;;;;;;;3.67;2.75;;;;;;;17.70;100.00;99356.09;5288925;28;20027;-75
2023/08/02 06:03:31;;;;;;;3.92;2.80;;;;;;;17.70;100.00;99350.81;5279897;28;20020;-74
2023/08/02 06:06:03;;;;;;;4.15;3.00;;;;;;;17.68;100.00;99340.41;5283211;28;20032;-75
2023/08/02 06:08:34;;;;;;;3.80;2.67;;;;;;;17.72;100.00;99335.50;5270514;28;20028;-73
2023/08/02 06:11:05;;;;;;;4.07;2.60;;;;;;;17.74;100.00;99336.13;5283475;28;20344;-74
2023/08/02 06:13:36;;;;;;;3.75;2.35;;;;;;;17.69;100.00;99318.22;5282064;28;20024;-74
2023/08/02 06:16:08;;;;;;;4.82;2.22;;;;;;;17.67;100.00;99304.38;5284392;28;20024;-74
2023/08/02 06:18:39;;;;;;;2.83;2.20;;;;;;;17.70;100.00;99309.25;5279912;28;20061;-75
2023/08/02 06:21:10;;;;;;;3.92;2.22;;;;;;;17.80;100.00;99295.53;5284972;28;20771;-73
2023/08/02 06:23:42;;;;;;;3.72;2.13;;;;;;;17.79;100.00;99295.75;5279425;28;20024;-76
2023/08/02 06:26:13;;;;;;;2.67;2.05;;;;;;;17.79;100.00;99285.97;5286034;28;20032;-74
2023/08/02 06:28:44;;;;;;;2.45;1.90;;;;;;;17.76;100.00;99281.09;5288329;28;20118;-74
2023/08/02 06:31:16;;;;;;;3.30;2.40;;;;;;;17.75;100.00;99277.66;5280573;28;20143;-73
2023/08/02 06:33:47;;;;;;;3.30;2.40;;;;;;;17.75;100.00;99272.34;5291825;28;20107;-73
2023/08/02 06:36:19;;;;;;;3.08;2.30;;;;;;;17.77;100.00;99256.25;5280836;28;20082;-75
2023/08/02 06:38:50;;;;;;;3.08;1.90;;;;;;;17.82;100.00;99260.91;5282144;28;20134;-74
2023/08/02 06:41:21;;;;;;;3.35;2.50;;;;;;;17.84;100.00;99251.72;5281582;28;20028;-74
2023/08/02 06:43:53;;;;;;;2.60;1.80;;;;;;;17.90;100.00;99240.25;5281857;28;20035;-73
2023/08/02 06:46:24;;;;;;;2.97;2.10;;;;;;;17.88;100.00;99225.59;5274602;28;20134;-74
2023/08/02 06:48:55;;;;;;;2.20;2.00;;;;;;;17.90;100.00;99234.94;5282161;28;20389;-77
2023/08/02 06:51:26;;;;;;;2.75;1.85;;;;;;;17.86;100.00;99204.63;5281913;28;20026;-74
2023/08/02 06:53:58;;;;;;;3.60;1.85;;;;;;;17.92;100.00;99202.94;5287883;28;20119;-74
2023/08/02 06:56:29;;;;;;;2.80;2.00;;;;;;;17.95;100.00;99186.59;5275363;28;20045;-74
2023/08/02 06:59:00;;;;;;;4.05;1.77;;;;;;;17.93;100.00;99188.66;5283081;28;20020;-75
2023/08/02 07:01:32;;;;;;;2.45;1.80;;;;;;;17.95;100.00;99186.59;5278915;28;20021;-74
2023/08/02 07:04:03;;;;;;;2.60;1.83;;;;;;;17.94;100.00;99187.63;5282906;28;20020;-74
2023/08/02 07:06:34;;;;;;;3.42;1.80;;;;;;;17.91;100.00;99165.03;5283624;28;20027;-76
2023/08/02 07:09:05;;;;;;;3.30;2.10;;;;;;;17.92;100.00;99164.00;5267485;28;20031;-74
2023/08/02 07:11:37;;;;;;;2.50;1.45;;;;;;;17.89;100.00;99161.78;5282237;28;20024;-75
2023/08/02 07:14:08;;;;;;;2.40;1.55;;;;;;;17.83;100.00;99140.66;5280835;28;20509;-74
2023/08/02 07:16:39;;;;;;;2.60;1.33;;;;;;;17.93;100.00;99148.91;5280529;28;20024;-75
2023/08/02 07:19:10;;;;;;;2.25;1.52;;;;;;;17.97;100.00;99158.84;5277582;28;20051;-75
2023/08/02 07:21:42;;;;;;;3.38;1.30;;;;;;;18.00;100.00;99160.28;5281736;28;20020;-73
2023/08/02 07:24:13;;;;;;;2.38;1.52;;;;;;;18.02;100.00;99154.75;5284007;28;20020;-74
2023/08/02 07:26:44;;;;;;;2.58;1.60;;;;;;;18.08;100.00;99151.22;5285551;28;20271;-74
2023/08/02 07:29:15;;;;;;;5.85;1.85;;;;;;;18.08;100.00;99153.88;5285553;28;20082;-75
2023/08/02 07:31:47;;;;;;;2.30;1.50;;;;;;;18.14;100.00;99145.81;5288752;28;20024;-74
2023/08/02 07:34:18;;;;;;;2.40;1.40;;;;;;;18.20;100.00;99134.34;5279996;28;20016;-75
2023/08/02 07:36:49;;;;;;;2.58;1.55;;;;;;;18.22;100.00;99134.94;5290603;28;20512;-75
2023/08/02 07:39:20;;;;;;;2.47;1.67;;;;;;;18.31;100.00;99135.44;5280923;28;20503;-77
2023/08/02 07:41:52;;;;;;;2.05;1.75;;;;;;;18.36;100.00;99118.88;5279763;28;20036;-77
2023/08/02 07:44:23;;;;;;;2.67;1.52;;;;;;;18.34;100.00;99103.19;5289785;28;20043;-75
2023/08/02 07:46:54;;;;;;;2.00;1.55;;;;;;;18.41;100.00;99105.75;5278794;28;20028;-75
2023/08/02 07:49:26;;;;;;;2.45;1.80;;;;;;;18.52;100.00;99105.00;5277195;28;20772;-77
2023/08/02 07:51:59;;;;;;;1.70;1.13;;;;;;;18.57;100.00;99097.19;5285545;28;20028;-75
2023/08/02 07:54:30;;;;;;;;;;;;;;;19.27;100.00;99096.56;5286252;28;20028;-75
2023/08/02 07:57:01;;;;;;;2.13;1.43;;;;;;;18.69;100.00;99081.31;5286502;28;20408;-75
2023/08/02 07:59:32;;;;;;;3.00;1.45;;;;;;;18.73;100.00;99081.69;5286620;28;20276;-76
2023/08/02 08:02:04;;;;;;;2.08;1.45;;;;;;;18.77;100.00;99070.41;5285911;28;20081;-77
2023/08/02 08:04:35;;;;;;;2.08;1.30;;;;;;;18.80;100.00;99069.97;5280004;28;20059;-75
2023/08/02 08:07:06;;;;;;;1.70;1.27;;;;;;;18.80;100.00;99072.63;5279877;28;20030;-75
2023/08/02 08:09:38;;;;;;;2.47;1.50;;;;;;;18.77;100.00;99078.38;5295405;22;20056;-66
2023/08/02 08:12:09;;;;;;;2.90;1.50;;;;;;;18.78;100.00;99073.88;5292931;28;20024;-66
2023/08/02 08:14:41;;;;;;;1.90;1.30;;;;;;;18.82;100.00;99081.13;5294252;28;20516;-66
2023/08/02 08:17:12;;;;;;;1.97;1.10;;;;;;;18.87;100.00;99064.56;5287722;28;20127;-66
2023/08/02 08:19:44;;;;;;;2.00;1.15;;;;;;;18.95;100.00;99058.91;5283112;28;20158;-67
2023/08/02 08:22:15;;;;;;;1.52;1.00;;;;;;;19.02;100.00;99051.66;5282246;28;20081;-67
2023/08/02 08:24:46;;;;;;;1.70;1.10;;;;;;;19.09;100.00;99046.22;5287087;28;20020;-66
2023/08/02 08:27:18;;;;;;;1.77;1.10;;;;;;;19.09;100.00;99055.03;5279904;28;20024;-66
2023/08/02 08:29:49;;;;;;;1.40;0.85;;;;;;;19.15;100.00;99062.06;5287256;28;20028;-66
2023/08/02 08:32:26;;;;;;;3.65;1.55;;;;;;;19.20;100.00;99058.69;5286520;28;20073;-66
2023/08/02 08:34:57;;;;;;;1.92;1.00;;;;;;;19.23;100.00;99054.78;5287296;28;20544;-66
2023/08/02 08:37:29;;;;;;;2.20;1.27;;;;;;;19.37;100.00;99050.88;5280427;28;20024;-66
2023/08/02 08:40:00;;;;;;;3.30;1.47;;;;;;;19.42;100.00;99051.78;5281320;28;20028;-66
2023/08/02 08:42:32;;;;;;;1.52;0.80;;;;;;;19.44;100.00;99044.41;5270165;28;20028;-66
2023/08/02 08:45:03;;;;;;;1.42;0.82;;;;;;;19.48;100.00;99060.69;5289726;28;20120;-66
2023/08/02 08:47:35;;;;;;;1.92;0.80;;;;;;;19.59;100.00;99054.56;5285609;28;20028;-66
2023/08/02 08:50:07;;;;;;;1.27;0.90;;;;;;;19.70;100.00;99045.00;5284823;28;20032;-66
2023/08/02 08:52:40;;;;;;;1.38;0.77;;;;;;;19.73;100.00;99033.88;5278254;28;20027;-67
2023/08/02 08:55:14;;;;;;;1.65;1.05;;;;;;;19.81;100.00;99036.19;5290541;28;20415;-66
2023/08/02 08:57:46;;;;;;;3.70;0.90;;;;;;;19.89;100.00;99037.69;5290059;28;20030;-66
2023/08/02 09:00:17;;;;;;;1.50;1.00;;;;;;;20.05;100.00;99039.59;5284608;28;20024;-66
2023/08/02 09:02:50;;;;;;;1.10;0.80;;;;;;;20.13;100.00;99020.59;5281185;28;20096;-66
2023/08/02 09:05:21;;;;;;;2.20;0.80;;;;;;;20.28;100.00;99020.09;5285496;28;20036;-66
2023/08/02 09:07:59;;;;;;;1.67;1.00;;;;;;;20.54;100.00;99018.72;5283377;28;20387;-66
2023/08/02 09:10:32;;;;;;;1.45;0.75;;;;;;;20.51;100.00;99011.22;5277900;28;20050;-66
2023/08/02 09:13:04;;;;;;;0.93;0.70;;;;;;;20.54;100.00;99012.59;5284779;28;20771;-66
2023/08/02 09:15:35;;;;;;;1.60;0.90;;;;;;;20.66;100.00;99005.34;5284827;28;20530;-66
2023/08/02 09:18:06;;;;;;;2.10;1.00;;;;;;;20.79;100.00;98998.88;5289151;28;20123;-66
2023/08/02 09:20:38;;;;;;;1.40;0.90;;;;;;;20.87;100.00;98995.81;5280714;28;20036;-67
2023/08/02 09:23:15;;;;;;;1.97;0.70;;;;;;;21.06;100.00;98991.06;5289424;28;20032;-67
2023/08/02 09:25:46;;;;;;;1.33;0.80;;;;;;;20.94;100.00;98985.81;5286570;28;20066;-67
2023/08/02 09:28:17;;;;;;;1.20;0.80;;;;;;;20.97;100.00;98989.88;5281815;28;20126;-67
2023/08/02 09:30:49;;;;;;;1.70;0.80;;;;;;;21.05;100.00;98978.78;5291461;28;20028;-66
2023/08/02 09:33:20;;;;;;;3.10;0.87;;;;;;;21.17;100.00;98974.16;5280041;28;20028;-66
2023/08/02 09:35:51;;;;;;;1.30;0.87;;;;;;;21.23;100.00;98973.19;5285265;28;20658;-66
2023/08/02 09:38:23;;;;;;;1.10;0.80;;;;;;;21.28;100.00;98977.78;5279239;28;20044;-67
2023/08/02 09:40:54;;;;;;;2.33;1.20;;;;;;;21.43;100.00;98966.56;5279749;28;20435;-67
2023/08/02 09:43:25;;;;;;;1.83;0.73;;;;;;;21.61;100.00;98964.41;5285330;28;20051;-67
2023/08/02 09:45:57;;;;;;;1.53;0.70;;;;;;;21.81;100.00;98968.34;5292261;28;20063;-67
2023/08/02 09:48:37;;;;;;;1.30;0.80;;;;;;;22.18;100.00;98973.06;5282806;28;20077;-67
2023/08/02 09:51:08;;;;;;;1.30;0.88;;;;;;;21.97;100.00;98951.50;5279440;28;20613;-67
2023/08/02 09:53:40;;;;;;;1.40;0.70;;;;;;;22.19;100.00;98954.13;5281306;28;20055;-67
2023/08/02 09:56:11;;;;;;;1.50;0.70;;;;;;;22.26;100.00;98953.94;5282370;28;20044;-67
2023/08/02 09:58:44;;;;;;;1.00;0.57;;;;;;;22.33;100.00;98947.31;5276719;28;20031;-67
2023/08/02 10:01:16;;;;;;;2.15;0.77;;;;;;;22.20;100.00;98952.25;5285316;28;20025;-66
2023/08/02 10:03:55;;;;;;;2.43;0.60;;;;;;;22.23;100.00;98957.09;5282749;28;20051;-67
2023/08/02 10:06:31;;;;;;;1.10;0.70;;;;;;;22.30;100.00;98952.34;5281078;28;20481;-67
2023/08/02 10:09:05;;;;;;;1.40;0.77;;;;;;;22.36;100.00;98942.56;5283968;28;20032;-74
2023/08/02 10:12:04;;;;;;;1.27;0.82;;;;;;;22.77;100.00;98944.47;5288812;28;20093;-67
2023/08/02 10:14:36;;;;;;;0.90;0.70;;;;;;;22.77;100.00;98941.81;5279884;28;20031;-67
2023/08/02 10:17:09;;;;;;;1.03;0.70;;;;;;;23.05;100.00;98924.66;5281203;28;20043;-67
2023/08/02 10:19:40;;;;;;;;;;;;;;;23.71;100.00;98926.03;5286001;28;20472;-68
2023/08/02 10:22:13;;;;;;;1.73;0.70;;;;;;;23.14;100.00;98913.47;5282081;28;19916;-67
2023/08/02 10:24:46;;;;;;;1.00;0.70;;;;;;;23.33;100.00;98906.63;5283716;28;20024;-67
2023/08/02 10:27:18;;;;;;;;;;;;;;;24.07;100.00;98900.19;5280339;28;20024;-67
2023/08/02 10:29:50;;;;;;;1.20;0.63;;;;;;;23.50;100.00;98903.75;5281764;28;19930;-68
2023/08/02 10:32:21;;;;;;;1.90;0.60;;;;;;;23.43;100.00;98916.56;5284644;28;20036;-68
2023/08/02 10:34:53;;;;;;;1.93;0.60;;;;;;;23.28;100.00;98895.91;5289293;28;20474;-68
2023/08/02 10:37:52;;;;;;;2.80;0.70;;;;;;;23.60;100.00;98893.09;5281520;28;20032;-68
2023/08/02 10:40:25;;;;;;;1.27;0.80;;;;;;;23.26;100.00;98893.53;5279068;28;20036;-67
2023/08/02 10:43:05;;;;;;;1.23;0.80;;;;;;;23.29;100.00;98878.81;5281329;28;20028;-67
2023/08/02 10:45:36;;;;;;;1.45;0.93;;;;;;;23.09;100.00;98881.41;5286117;28;20118;-67
2023/08/02 10:48:25;;;;;;;1.20;0.87;;;;;;;23.28;100.00;98885.22;5262716;28;20016;-68
2023/08/02 10:50:58;;;;;;;1.10;0.70;;;;;;;22.75;100.00;98887.88;5274660;28;20628;-67
2023/08/02 10:53:29;;;;;;;1.25;0.80;;;;;;;22.62;100.00;98899.00;5290779;28;20016;-67
2023/08/02 10:56:05;;;;;;;4.00;1.33;;;;;;;22.56;100.00;98876.00;5290641;28;20039;-67
2023/08/02 10:58:54;;;;;;;3.03;1.02;;;;;;;22.75;100.00;98863.03;5278693;28;20444;-67
2023/08/02 11:01:25;;;;;;;1.75;1.20;;;;;;;22.52;100.00;98848.22;5280632;28;20038;-68
2023/08/02 11:03:58;;;;;;;1.80;1.10;;;;;;;22.61;100.00;98848.53;5280001;28;20024;-67
2023/08/02 11:06:29;;;;;;;1.60;1.10;;;;;;;22.57;100.00;98842.91;5282380;28;20103;-67
2023/08/02 11:09:00;;;;;;;2.13;1.40;;;;;;;22.52;100.00;98853.56;5287283;28;20496;-67
2023/08/02 11:11:33;;;;;;;2.60;1.20;;;;;;;22.41;100.00;98863.34;5275290;28;20050;-68
2023/08/02 11:14:05;;;;;;;2.90;1.42;;;;;;;22.33;100.00;98866.50;5280634;28;20124;-67
2023/08/02 11:16:40;;;;;;;3.23;1.30;;;;;;;22.42;100.00;98864.94;5288836;28;20066;-68
2023/08/02 11:19:13;;;;;;;2.05;1.27;;;;;;;22.14;100.00;98865.28;5278818;28;20485;-68
2023/08/02 11:21:54;;;;;;;;;;;;;;;22.93;100.00;98873.31;5287018;28;20028;-67
2023/08/02 11:24:26;;;;;;;2.83;1.30;;;;;;;22.09;100.00;98880.13;5282888;28;19916;-67
2023/08/02 11:26:59;;;;;;;1.67;1.13;;;;;;;22.17;100.00;98876.22;5277085;28;20051;-67
2023/08/02 11:29:30;;;;;;;1.40;1.05;;;;;;;22.19;100.00;98876.78;5276060;28;20016;-67
2023/08/02 11:32:04;;;;;;;1.87;1.20;;;;;;;22.36;100.00;98876.66;5278754;28;20032;-67
2023/08/02 11:34:36;;;;;;;1.75;1.10;;;;;;;22.51;100.00;98871.44;5281668;28;20024;-67
2023/08/02 11:37:08;;;;;;;2.63;1.20;;;;;;;22.56;100.00;98857.31;5279389;28;20033;-67
2023/08/02 11:39:50;;;;;;;1.80;1.30;;;;;;;22.86;100.00;98850.56;5278079;28;20114;-67
2023/08/02 11:42:22;;;;;;;2.10;1.35;;;;;;;22.92;100.00;98855.69;5274715;28;20040;-67
2023/08/02 11:44:53;;;;;;;2.47;1.27;;;;;;;23.31;100.00;98844.63;5273448;28;20501;-67
2023/08/02 11:47:34;;;;;;;1.60;1.23;;;;;;;23.77;100.00;98850.13;5281919;28;20028;-67
2023/08/02 11:50:06;;;;;;;2.08;1.10;;;;;;;23.78;100.00;98851.72;5280421;28;20085;-67